createdAt,value
2023-08-18T00:00:08.997Z,25.52
2023-08-18T00:02:42.109Z,25.57
2023-08-18T00:05:09.379Z,25.48
2023-08-18T00:07:36.521Z,25.74
2023-08-18T00:10:05.289Z,25.50
2023-08-18T00:12:33.814Z,25.15
2023-08-18T00:15:01.294Z,25.28
2023-08-18T00:17:28.740Z,25.28
2023-08-18T00:19:55.957Z,25.02
2023-08-18T00:22:23.124Z,24.91
2023-08-18T00:24:49.988Z,25.06
2023-08-18T00:27:16.894Z,25.13
2023-08-18T00:29:43.758Z,24.95
2023-08-18T00:32:10.702Z,25.15
2023-08-18T00:34:38.837Z,25.30
2023-08-18T00:37:05.861Z,25.25
2023-08-18T00:39:32.815Z,25.11
2023-08-18T00:41:59.723Z,25.29
2023-08-18T00:44:27.168Z,25.21
2023-08-18T00:46:55.033Z,25.28
2023-08-18T00:49:22.781Z,25.29
2023-08-18T00:51:50.136Z,25.17
2023-08-18T00:54:17.731Z,25.28
2023-08-18T00:56:46.888Z,25.13
2023-08-18T00:59:14.687Z,25.10
2023-08-18T01:01:43.876Z,25.07
2023-08-18T01:04:13.590Z,24.98
2023-08-18T01:06:41.161Z,25.01
2023-08-18T01:09:08.486Z,24.78
2023-08-18T01:11:50.080Z,25.00
2023-08-18T01:14:46.052Z,24.94
2023-08-18T01:17:21.455Z,24.85
2023-08-18T01:19:49.462Z,24.86
2023-08-18T01:22:19.186Z,24.75
2023-08-18T01:24:46.147Z,24.75
2023-08-18T01:27:13.004Z,24.90
2023-08-18T01:29:40.153Z,24.83
2023-08-18T01:32:09.108Z,24.84
2023-08-18T01:34:41.907Z,24.94
2023-08-18T01:37:10.248Z,24.73
2023-08-18T01:39:38.567Z,24.77
2023-08-18T01:42:05.838Z,24.78
2023-08-18T01:44:32.734Z,24.82
2023-08-18T01:47:00.527Z,24.65
2023-08-18T01:49:27.456Z,24.74
2023-08-18T01:51:54.316Z,24.76
2023-08-18T01:54:21.468Z,24.61
2023-08-18T01:56:48.415Z,24.70
2023-08-18T01:59:16.463Z,24.83
2023-08-18T02:01:43.443Z,24.86
2023-08-18T02:04:10.326Z,24.92
2023-08-18T02:06:37.294Z,25.04
2023-08-18T02:09:04.960Z,24.84
2023-08-18T02:11:33.172Z,24.68
2023-08-18T02:14:00.193Z,24.68
2023-08-18T02:16:27.164Z,24.72
2023-08-18T02:18:54.107Z,24.80
2023-08-18T02:21:21.025Z,24.71
2023-08-18T02:23:47.974Z,24.72
2023-08-18T02:26:15.645Z,24.46
2023-08-18T02:28:42.520Z,24.40
2023-08-18T02:31:10.904Z,24.24
2023-08-18T02:33:38.167Z,24.28
2023-08-18T02:36:06.192Z,24.21
2023-08-18T02:38:36.505Z,24.24
2023-08-18T02:41:03.378Z,24.24
2023-08-18T02:43:30.201Z,24.42
2023-08-18T02:46:03.998Z,24.62
2023-08-18T02:48:31.406Z,24.59
2023-08-18T02:51:08.840Z,24.60
2023-08-18T02:53:38.445Z,24.46
2023-08-18T02:56:05.577Z,24.63
2023-08-18T02:58:34.729Z,24.75
2023-08-18T03:01:04.485Z,24.81
2023-08-18T03:03:32.934Z,24.60
2023-08-18T03:06:01.680Z,24.40
2023-08-18T03:08:28.792Z,24.19
2023-08-18T03:11:00.686Z,24.11
2023-08-18T03:13:28.054Z,23.90
2023-08-18T03:15:55.672Z,23.95
2023-08-18T03:18:23.091Z,23.92
2023-08-18T03:20:51.015Z,24.02
2023-08-18T03:23:19.419Z,24.07
2023-08-18T03:25:46.508Z,23.98
2023-08-18T03:28:13.670Z,24.19
2023-08-18T03:30:41.449Z,24.20
2023-08-18T03:33:09.516Z,24.05
2023-08-18T03:35:37.121Z,24.13
2023-08-18T03:38:05.045Z,24.08
2023-08-18T03:40:33.286Z,23.98
2023-08-18T03:43:00.470Z,24.29
2023-08-18T03:45:29.244Z,24.45
2023-08-18T03:47:56.505Z,24.54
2023-08-18T03:50:23.890Z,24.39
2023-08-18T03:52:50.801Z,23.95
2023-08-18T03:55:19.447Z,24.35
2023-08-18T03:57:46.440Z,24.07
2023-08-18T04:00:14.039Z,23.90
2023-08-18T04:02:41.074Z,23.90
2023-08-18T04:05:12.172Z,23.92
2023-08-18T04:07:39.126Z,24.10
2023-08-18T04:10:07.115Z,24.13
2023-08-18T04:12:34.248Z,24.43
2023-08-18T04:15:01.164Z,24.46
2023-08-18T04:17:28.052Z,24.41
2023-08-18T04:19:55.439Z,24.64
2023-08-18T04:22:23.129Z,24.69
2023-08-18T04:24:51.938Z,24.63
2023-08-18T04:27:18.838Z,24.78
2023-08-18T04:29:45.808Z,24.71
2023-08-18T04:32:12.923Z,24.57
2023-08-18T04:34:41.068Z,24.80
2023-08-18T04:37:08.078Z,24.71
2023-08-18T04:39:35.062Z,24.76
2023-08-18T04:42:01.970Z,24.58
2023-08-18T04:44:32.320Z,24.78
2023-08-18T04:47:03.031Z,24.86
2023-08-18T04:49:30.138Z,25.36
2023-08-18T04:51:56.965Z,25.72
2023-08-18T04:54:23.856Z,25.92
2023-08-18T04:56:59.264Z,25.99
2023-08-18T04:59:27.362Z,25.89
2023-08-18T05:01:55.107Z,26.07
2023-08-18T05:04:23.073Z,25.76
2023-08-18T05:06:50.028Z,26.06
2023-08-18T05:09:16.952Z,26.20
2023-08-18T05:11:43.847Z,26.28
2023-08-18T05:14:10.910Z,26.28
2023-08-18T05:16:38.027Z,26.25
2023-08-18T05:19:05.441Z,26.41
2023-08-18T05:21:32.279Z,26.46
2023-08-18T05:23:59.240Z,26.43
2023-08-18T05:26:26.104Z,26.45
2023-08-18T05:28:53.030Z,26.44
2023-08-18T05:31:19.968Z,26.47
2023-08-18T05:33:46.796Z,26.67
2023-08-18T05:36:13.825Z,26.86
2023-08-18T05:38:40.738Z,26.77
2023-08-18T05:41:14.447Z,26.83
2023-08-18T05:43:42.368Z,27.14
2023-08-18T05:46:11.017Z,27.29
2023-08-18T05:48:37.944Z,27.60
2023-08-18T05:51:05.398Z,27.59
2023-08-18T05:53:32.756Z,27.59
2023-08-18T05:55:59.927Z,27.79
2023-08-18T05:58:28.096Z,27.74
2023-08-18T06:00:55.041Z,27.67
2023-08-18T06:03:22.054Z,27.64
2023-08-18T06:05:49.841Z,27.63
2023-08-18T06:08:17.414Z,27.83
2023-08-18T06:10:44.520Z,28.13
2023-08-18T06:13:11.488Z,28.25
2023-08-18T06:15:38.631Z,28.27
2023-08-18T06:18:05.680Z,28.34
2023-08-18T06:20:35.133Z,28.32
2023-08-18T06:23:01.997Z,28.38
2023-08-18T06:25:28.976Z,28.52
2023-08-18T06:27:56.069Z,28.58
2023-08-18T06:30:23.095Z,28.62
2023-08-18T06:32:49.995Z,28.83
2023-08-18T06:35:17.010Z,28.76
2023-08-18T06:37:43.899Z,28.92
2023-08-18T06:40:11.210Z,29.08
2023-08-18T06:42:38.266Z,29.15
2023-08-18T06:45:06.378Z,29.09
2023-08-18T06:47:34.800Z,28.67
2023-08-18T06:50:06.849Z,28.39
2023-08-18T06:52:35.158Z,28.31
2023-08-18T06:55:04.967Z,28.64
2023-08-18T06:57:33.210Z,28.66
2023-08-18T07:00:01.376Z,28.61
2023-08-18T07:02:30.016Z,28.54
2023-08-18T07:04:57.150Z,28.81
2023-08-18T07:07:24.006Z,29.25
2023-08-18T07:09:51.257Z,29.28
2023-08-18T07:12:19.720Z,29.69
2023-08-18T07:14:46.595Z,29.66
2023-08-18T07:17:13.441Z,29.69
2023-08-18T07:19:40.323Z,29.65
2023-08-18T07:22:07.198Z,29.76
2023-08-18T07:24:34.062Z,30.14
2023-08-18T07:27:01.059Z,30.50
2023-08-18T07:29:28.037Z,30.80
2023-08-18T07:31:54.986Z,30.93
2023-08-18T07:34:21.817Z,31.15
2023-08-18T07:36:48.751Z,30.91
2023-08-18T07:39:15.635Z,30.85
2023-08-18T07:41:42.579Z,30.64
2023-08-18T07:44:09.666Z,30.79
2023-08-18T07:46:37.028Z,30.51
2023-08-18T07:49:05.281Z,30.42
2023-08-18T07:51:32.468Z,30.11
2023-08-18T07:53:59.423Z,30.23
2023-08-18T07:56:26.490Z,30.91
2023-08-18T07:58:55.858Z,31.36
2023-08-18T08:01:24.289Z,31.14
2023-08-18T08:03:51.188Z,30.98
2023-08-18T08:06:18.146Z,30.61
2023-08-18T08:08:45.038Z,30.35
2023-08-18T08:11:13.682Z,30.12
2023-08-18T08:13:40.843Z,30.17
2023-08-18T08:16:08.134Z,30.32
2023-08-18T08:18:35.096Z,30.23
2023-08-18T08:21:01.957Z,30.38
2023-08-18T08:23:28.804Z,30.45
2023-08-18T08:25:56.738Z,30.68
2023-08-18T08:28:23.933Z,31.16
2023-08-18T08:30:53.706Z,31.87
2023-08-18T08:33:20.685Z,31.69
2023-08-18T08:35:47.614Z,31.66
2023-08-18T08:38:14.644Z,31.62
2023-08-18T08:40:42.652Z,31.42
2023-08-18T08:43:09.581Z,31.26
2023-08-18T08:45:36.517Z,31.51
2023-08-18T08:48:07.767Z,32.08
2023-08-18T08:50:38.539Z,32.58
2023-08-18T08:53:07.890Z,32.89
2023-08-18T08:55:37.769Z,33.29
2023-08-18T08:58:06.282Z,33.14
2023-08-18T09:00:33.281Z,33.30
2023-08-18T09:03:04.116Z,33.60
2023-08-18T09:05:32.542Z,33.86
2023-08-18T09:08:00.250Z,33.83
2023-08-18T09:10:30.603Z,33.70
2023-08-18T09:12:57.446Z,33.97
2023-08-18T09:15:25.111Z,33.83
2023-08-18T09:17:52.809Z,33.78
2023-08-18T09:20:20.548Z,33.75
2023-08-18T09:22:47.853Z,33.85
2023-08-18T09:25:15.067Z,33.89
2023-08-18T09:27:43.666Z,33.61
2023-08-18T09:30:10.880Z,33.74
2023-08-18T09:32:38.342Z,34.01
2023-08-18T09:35:12.087Z,33.43
2023-08-18T09:37:39.752Z,33.55
2023-08-18T09:40:07.366Z,33.73
2023-08-18T09:42:34.306Z,34.27
2023-08-18T09:45:01.346Z,34.42
2023-08-18T09:47:31.668Z,34.62
2023-08-18T09:50:01.375Z,34.64
2023-08-18T09:52:31.323Z,34.60
2023-08-18T09:55:12.420Z,34.39
2023-08-18T09:57:54.534Z,33.65
2023-08-18T10:00:22.453Z,34.18
2023-08-18T10:02:53.830Z,34.43
2023-08-18T10:05:23.046Z,34.04
2023-08-18T10:07:51.704Z,33.64
2023-08-18T10:10:19.639Z,33.98
2023-08-18T10:12:47.157Z,34.38
2023-08-18T10:15:15.456Z,34.04
2023-08-18T10:17:43.249Z,34.47
2023-08-18T10:20:13.519Z,34.71
2023-08-18T10:22:43.245Z,35.24
2023-08-18T10:25:10.827Z,35.27
2023-08-18T10:27:42.028Z,35.61
2023-08-18T10:30:08.983Z,35.08
2023-08-18T10:32:37.404Z,34.96
2023-08-18T10:35:23.951Z,35.19
2023-08-18T10:38:00.028Z,35.33
2023-08-18T10:40:30.121Z,34.93
2023-08-18T10:43:07.624Z,34.46
2023-08-18T10:45:35.036Z,34.58
2023-08-18T10:48:07.374Z,34.38
2023-08-18T10:50:40.191Z,34.76
2023-08-18T10:53:09.304Z,34.46
2023-08-18T10:55:36.309Z,34.48
2023-08-18T10:58:03.891Z,34.53
2023-08-18T11:00:35.420Z,34.62
2023-08-18T11:03:04.698Z,34.72
2023-08-18T11:05:35.202Z,35.06
2023-08-18T11:08:14.032Z,35.03
2023-08-18T11:10:44.058Z,35.09
2023-08-18T11:13:26.034Z,35.57
2023-08-18T11:15:57.336Z,35.21
2023-08-18T11:18:29.964Z,35.15
2023-08-18T11:20:57.665Z,35.65
2023-08-18T11:23:24.671Z,35.56
2023-08-18T11:25:51.767Z,35.70
2023-08-18T11:28:18.771Z,35.84
2023-08-18T11:30:45.724Z,36.08
2023-08-18T11:33:12.765Z,36.14
2023-08-18T11:35:40.023Z,36.09
2023-08-18T11:38:09.406Z,36.25
2023-08-18T11:40:40.780Z,36.49
2023-08-18T11:43:14.161Z,36.55
2023-08-18T11:45:41.639Z,36.54
2023-08-18T11:48:09.080Z,36.54
2023-08-18T11:50:38.251Z,36.47
2023-08-18T11:53:08.940Z,36.68
2023-08-18T11:55:38.094Z,36.55
2023-08-18T11:58:11.675Z,36.46
2023-08-18T12:00:40.459Z,36.73
2023-08-18T12:03:28.422Z,36.36
2023-08-18T12:05:57.593Z,36.47
2023-08-18T12:08:25.168Z,36.54
2023-08-18T12:10:54.943Z,36.76
2023-08-18T12:13:22.476Z,36.80
2023-08-18T12:15:49.974Z,36.97
2023-08-18T12:18:16.888Z,36.96
2023-08-18T12:20:43.768Z,36.95
2023-08-18T12:23:10.673Z,37.02
2023-08-18T12:25:37.495Z,36.88
2023-08-18T12:28:05.308Z,37.02
2023-08-18T12:30:32.440Z,37.22
2023-08-18T12:32:59.348Z,37.06
2023-08-18T12:35:26.521Z,36.81
2023-08-18T12:37:53.893Z,36.51
2023-08-18T12:40:20.884Z,36.81
2023-08-18T12:42:47.823Z,36.62
2023-08-18T12:45:14.734Z,36.70
2023-08-18T12:47:41.664Z,37.08
2023-08-18T12:50:09.033Z,36.94
2023-08-18T12:52:36.328Z,36.45
2023-08-18T12:55:06.301Z,36.77
2023-08-18T12:57:33.294Z,36.29
2023-08-18T13:00:00.234Z,36.10
2023-08-18T13:02:27.162Z,35.76
2023-08-18T13:04:54.033Z,36.03
2023-08-18T13:07:21.098Z,35.70
2023-08-18T13:09:47.996Z,35.71
2023-08-18T13:14:44.647Z,35.83
2023-08-18T13:17:11.730Z,36.01
2023-08-18T13:19:42.500Z,35.94
2023-08-18T13:22:15.216Z,35.40
2023-08-18T13:24:42.321Z,35.12
2023-08-18T13:27:09.227Z,34.75
2023-08-18T13:29:36.095Z,34.16
2023-08-18T13:32:03.136Z,34.11
2023-08-18T13:34:30.062Z,34.00
2023-08-18T13:36:57.131Z,33.98
2023-08-18T13:39:24.423Z,33.98
2023-08-18T13:41:51.263Z,33.78
2023-08-18T13:44:18.166Z,33.83
2023-08-18T13:46:45.218Z,33.68
2023-08-18T13:49:12.733Z,33.64
2023-08-18T13:51:41.061Z,33.57
2023-08-18T13:54:12.764Z,33.44
2023-08-18T13:56:41.149Z,33.59
2023-08-18T13:59:08.487Z,33.38
2023-08-18T14:01:35.809Z,33.36
2023-08-18T14:04:03.097Z,33.44
2023-08-18T14:06:30.025Z,33.20
2023-08-18T14:08:57.114Z,32.83
2023-08-18T14:11:23.943Z,32.71
2023-08-18T14:13:51.228Z,32.73
2023-08-18T14:16:18.118Z,32.79
2023-08-18T14:18:45.160Z,32.85
2023-08-18T14:21:12.040Z,32.91
2023-08-18T14:23:39.008Z,33.12
2023-08-18T14:26:05.970Z,33.12
2023-08-18T14:28:32.970Z,33.35
2023-08-18T14:30:59.848Z,33.57
2023-08-18T14:33:43.443Z,33.84
2023-08-18T14:36:13.049Z,34.21
2023-08-18T14:38:39.968Z,34.42
2023-08-18T14:41:07.142Z,34.44
2023-08-18T14:43:34.121Z,34.42
2023-08-18T14:46:01.139Z,34.03
2023-08-18T14:48:30.414Z,34.10
2023-08-18T14:50:58.460Z,34.32
2023-08-18T14:53:25.474Z,34.43
2023-08-18T14:55:53.294Z,34.41
2023-08-18T14:58:25.979Z,34.50
2023-08-18T15:00:53.294Z,34.44
2023-08-18T15:03:20.650Z,34.34
2023-08-18T15:05:47.624Z,34.24
2023-08-18T15:08:14.878Z,34.40
2023-08-18T15:10:42.076Z,34.38
2023-08-18T15:13:09.170Z,34.30
2023-08-18T15:15:36.118Z,34.15
2023-08-18T15:18:04.553Z,34.02
2023-08-18T15:20:32.410Z,34.02
2023-08-18T15:23:00.150Z,34.11
2023-08-18T15:25:27.376Z,34.15
2023-08-18T15:27:54.642Z,34.09
2023-08-18T15:30:22.246Z,33.93
2023-08-18T15:32:49.250Z,34.02
2023-08-18T15:35:16.220Z,33.72
2023-08-18T15:37:43.149Z,33.56
2023-08-18T15:40:10.943Z,33.54
2023-08-18T15:42:38.215Z,33.30
2023-08-18T15:45:05.732Z,33.30
2023-08-18T15:47:33.107Z,33.28
2023-08-18T15:50:00.560Z,33.28
2023-08-18T15:52:27.507Z,33.16
2023-08-18T15:54:54.642Z,33.01
2023-08-18T15:57:21.609Z,32.83
2023-08-18T15:59:48.575Z,32.94
2023-08-18T16:02:15.536Z,32.95
2023-08-18T16:04:42.544Z,32.97
2023-08-18T16:07:09.583Z,32.82
2023-08-18T16:09:36.511Z,32.70
2023-08-18T16:12:03.622Z,32.63
2023-08-18T16:17:01.525Z,32.23
2023-08-18T16:19:29.707Z,32.48
2023-08-18T16:21:56.653Z,32.48
2023-08-18T16:24:23.651Z,32.37
2023-08-18T16:26:52.577Z,32.17
2023-08-18T16:29:19.622Z,32.03
2023-08-18T16:31:46.566Z,31.94
2023-08-18T16:34:13.452Z,31.98
2023-08-18T16:36:40.337Z,31.97
2023-08-18T16:39:07.356Z,31.59
2023-08-18T16:41:34.314Z,31.54
2023-08-18T16:44:01.249Z,31.31
2023-08-18T16:46:28.185Z,31.29
2023-08-18T16:48:56.048Z,31.19
2023-08-18T16:51:22.913Z,31.18
2023-08-18T16:53:49.929Z,31.15
2023-08-18T16:56:16.969Z,30.99
2023-08-18T16:58:43.853Z,30.94
2023-08-18T17:01:10.923Z,30.91
2023-08-18T17:03:37.965Z,30.96
2023-08-18T17:06:04.887Z,31.00
2023-08-18T17:08:31.848Z,31.13
2023-08-18T17:11:00.473Z,31.05
2023-08-18T17:13:27.732Z,31.08
2023-08-18T17:15:54.809Z,31.14
2023-08-18T17:18:24.714Z,31.19
2023-08-18T17:20:53.200Z,30.82
2023-08-18T17:23:21.422Z,30.97
2023-08-18T17:25:49.771Z,30.90
2023-08-18T17:28:17.782Z,30.88
2023-08-18T17:30:45.965Z,30.89
2023-08-18T17:33:14.580Z,30.74
2023-08-18T17:35:44.728Z,30.70
2023-08-18T17:38:11.688Z,30.72
2023-08-18T17:40:38.651Z,30.66
2023-08-18T17:43:06.213Z,30.48
2023-08-18T17:45:35.957Z,30.33
2023-08-18T17:48:03.159Z,30.43
2023-08-18T17:50:30.074Z,30.19
2023-08-18T17:52:58.026Z,30.31
2023-08-18T17:55:25.068Z,29.81
2023-08-18T17:57:52.310Z,30.08
2023-08-18T18:00:19.338Z,30.17
2023-08-18T18:02:46.572Z,29.99
2023-08-18T18:05:15.267Z,29.99
2023-08-18T18:07:42.382Z,30.03
2023-08-18T18:10:10.095Z,29.98
2023-08-18T18:12:37.517Z,29.97
2023-08-18T18:15:04.897Z,29.74
2023-08-18T18:17:36.243Z,29.66
2023-08-18T18:20:04.135Z,29.64
2023-08-18T18:22:31.672Z,29.73
2023-08-18T18:24:58.813Z,29.52
2023-08-18T18:27:25.812Z,29.60
2023-08-18T18:29:52.681Z,29.45
2023-08-18T18:32:19.732Z,29.39
2023-08-18T18:34:48.243Z,29.54
2023-08-18T18:37:15.480Z,29.52
2023-08-18T18:39:42.486Z,29.31
2023-08-18T18:42:09.720Z,29.26
2023-08-18T18:44:37.433Z,29.41
2023-08-18T18:47:04.745Z,29.18
2023-08-18T18:49:31.745Z,29.13
2023-08-18T18:51:58.711Z,29.29
2023-08-18T18:54:26.114Z,29.26
2023-08-18T18:56:53.088Z,29.13
2023-08-18T18:59:20.029Z,29.16
2023-08-18T19:01:46.874Z,29.12
2023-08-18T19:04:13.967Z,29.04
2023-08-18T19:06:40.838Z,28.99
2023-08-18T19:09:07.767Z,29.13
2023-08-18T19:11:34.677Z,28.98
2023-08-18T19:14:01.621Z,29.10
2023-08-18T19:16:28.617Z,28.88
2023-08-18T19:18:55.533Z,28.87
2023-08-18T19:21:28.606Z,28.82
2023-08-18T19:23:56.118Z,28.76
2023-08-18T19:26:24.123Z,28.69
2023-08-18T19:28:55.341Z,28.55
2023-08-18T19:31:23.036Z,28.61
2023-08-18T19:33:50.024Z,28.64
2023-08-18T19:36:20.021Z,28.68
2023-08-18T19:38:47.449Z,28.56
2023-08-18T19:41:14.507Z,28.38
2023-08-18T19:43:41.408Z,28.50
2023-08-18T19:46:08.777Z,28.38
2023-08-18T19:48:35.831Z,28.36
2023-08-18T19:51:02.838Z,28.04
2023-08-18T19:53:29.758Z,28.15
2023-08-18T19:55:56.730Z,28.13
2023-08-18T19:58:23.955Z,28.35
2023-08-18T20:00:50.874Z,28.25
2023-08-18T20:03:17.964Z,28.29
2023-08-18T20:05:44.828Z,28.22
2023-08-18T20:08:14.541Z,28.19
2023-08-18T20:10:43.017Z,28.01
2023-08-18T20:13:10.102Z,28.09
2023-08-18T20:15:37.079Z,28.23
2023-08-18T20:18:04.959Z,28.14
2023-08-18T20:20:32.039Z,28.02
2023-08-18T20:22:59.169Z,27.93
2023-08-18T20:25:27.087Z,28.00
2023-08-18T20:27:54.170Z,28.13
2023-08-18T20:30:22.023Z,27.95
2023-08-18T20:32:54.731Z,27.95
2023-08-18T20:35:25.739Z,28.18
2023-08-18T20:37:53.567Z,28.08
2023-08-18T20:40:20.641Z,28.10
2023-08-18T20:42:47.585Z,28.27
2023-08-18T20:45:14.420Z,28.38
2023-08-18T20:47:41.344Z,28.19
2023-08-18T20:50:11.407Z,27.95
2023-08-18T20:52:38.930Z,28.20
2023-08-18T20:55:08.620Z,28.16
2023-08-18T20:57:35.905Z,27.96
2023-08-18T21:00:04.061Z,27.83
2023-08-18T21:02:31.574Z,27.82
2023-08-18T21:05:01.754Z,27.77
2023-08-18T21:07:28.747Z,27.93
2023-08-18T21:09:55.636Z,27.98
2023-08-18T21:12:23.930Z,27.87
2023-08-18T21:14:50.957Z,27.77
2023-08-18T21:17:17.980Z,27.52
2023-08-18T21:19:45.489Z,27.44
2023-08-18T21:22:12.421Z,27.55
2023-08-18T21:24:39.326Z,27.52
2023-08-18T21:27:06.396Z,27.42
2023-08-18T21:29:33.318Z,27.44
2023-08-18T21:32:00.295Z,27.56
2023-08-18T21:34:27.217Z,27.50
2023-08-18T21:36:54.150Z,27.54
2023-08-18T21:39:21.836Z,27.69
2023-08-18T21:41:48.737Z,27.48
2023-08-18T21:44:15.834Z,27.31
2023-08-18T21:46:42.752Z,27.18
2023-08-18T21:49:09.658Z,27.40
2023-08-18T21:51:36.585Z,27.43
2023-08-18T21:54:03.731Z,27.30
2023-08-18T21:56:32.628Z,27.33
2023-08-18T21:58:59.590Z,27.39
2023-08-18T22:01:26.666Z,27.46
2023-08-18T22:03:53.821Z,27.36
2023-08-18T22:06:20.739Z,27.39
2023-08-18T22:08:47.702Z,27.38
2023-08-18T22:11:14.566Z,27.32
2023-08-18T22:13:43.657Z,27.30
2023-08-18T22:16:10.655Z,27.28
2023-08-18T22:18:37.708Z,27.24
2023-08-18T22:21:05.426Z,27.20
2023-08-18T22:23:35.944Z,26.76
2023-08-18T22:26:03.279Z,26.79
2023-08-18T22:28:30.097Z,26.64
2023-08-18T22:30:56.944Z,26.78
2023-08-18T22:33:24.983Z,26.77
2023-08-18T22:35:58.710Z,26.71
2023-08-18T22:38:25.734Z,26.77
2023-08-18T22:41:00.119Z,26.38
2023-08-18T22:43:27.261Z,26.31
2023-08-18T22:45:55.079Z,26.26
2023-08-18T22:48:23.583Z,26.04
2023-08-18T22:50:51.713Z,25.95
2023-08-18T22:53:18.649Z,25.81
2023-08-18T22:55:45.619Z,25.99
2023-08-18T22:58:12.596Z,25.69
2023-08-18T23:00:39.550Z,25.70
2023-08-18T23:03:06.767Z,25.56
2023-08-18T23:05:33.780Z,25.47
2023-08-18T23:08:00.926Z,25.33
2023-08-18T23:10:27.948Z,25.23
2023-08-18T23:12:54.911Z,25.21
2023-08-18T23:15:21.815Z,24.85
2023-08-18T23:17:48.831Z,24.99
2023-08-18T23:20:15.793Z,24.97
2023-08-18T23:22:42.655Z,25.00
2023-08-18T23:25:09.792Z,24.89
2023-08-18T23:27:36.849Z,24.78
2023-08-18T23:30:05.270Z,24.95
2023-08-18T23:32:32.226Z,24.91
2023-08-18T23:34:59.266Z,25.17
2023-08-18T23:37:26.135Z,25.01
2023-08-18T23:39:53.077Z,24.83
2023-08-18T23:42:20.020Z,24.68
2023-08-18T23:44:46.988Z,24.79
2023-08-18T23:47:13.850Z,24.86
2023-08-18T23:49:40.730Z,24.92
2023-08-18T23:52:07.604Z,24.81
2023-08-18T23:54:34.505Z,24.74
2023-08-18T23:57:05.933Z,24.88
2023-08-18T23:59:32.836Z,25.05
